Time;durP1;ratioP1;P1;durP2;ratioP2;P2;SDS_P1;SDS_P2;PMS_P1;PMS_P2;Temp;Humidity;BMP_temperature;BMP_pressure;BME280_temperature;BME280_humidity;BME280_pressure;Samples;Min_cycle;Max_cycle;Signal;HPM_P1;HPM_P2
2022/05/27 00:04:48;;;;;;;0.25;0.20;;;17.50;50.60;19.50;94550.00;;;;10356089;28;45177;-63
2022/05/27 00:10:12;;;;;;;0.10;0.10;;;17.50;50.60;19.60;94555.00;;;;10355477;28;45765;-63
2022/05/27 00:15:32;;;;;;;0.20;0.10;;;17.40;50.50;19.50;94541.00;;;;10355449;28;45225;-63
2022/05/27 00:20:55;;;;;;;0.35;0.20;;;17.50;50.50;19.50;94554.00;;;;10356008;28;45152;-63
2022/05/27 00:26:15;;;;;;;0.20;0.10;;;17.50;50.50;19.50;94557.00;;;;10355584;28;45300;-63
2022/05/27 00:31:36;;;;;;;1.25;0.13;;;17.40;50.50;19.50;94552.00;;;;10355391;28;45791;-63
2022/05/27 00:36:58;;;;;;;0.20;0.10;;;17.40;50.50;19.50;94555.00;;;;10354803;28;45156;-63
2022/05/27 00:42:18;;;;;;;0.20;0.10;;;17.40;50.40;19.50;94554.00;;;;10355119;28;45246;-63
2022/05/27 00:47:40;;;;;;;0.17;0.10;;;17.40;50.50;19.50;94545.00;;;;10354921;28;45103;-63
2022/05/27 00:53:05;;;;;;;0.13;0.10;;;17.40;50.50;19.50;94528.00;;;;10354589;28;45241;-63
2022/05/27 00:58:31;;;;;;;0.40;0.30;;;17.40;50.50;19.50;94534.00;;;;10352947;28;45222;-64
2022/05/27 01:03:52;;;;;;;0.20;0.20;;;17.40;50.60;19.50;94538.00;;;;10349916;28;45400;-64
2022/05/27 01:09:15;;;;;;;0.05;0.05;;;17.40;50.60;19.50;94531.00;;;;10354125;28;45122;-63
2022/05/27 01:14:54;;;;;;;0.25;0.10;;;17.40;50.50;19.50;94536.00;;;;10354576;28;45204;-63
2022/05/27 01:20:27;;;;;;;0.22;0.10;;;17.40;50.70;19.40;94517.00;;;;10353615;28;45148;-63
2022/05/27 01:26:41;;;;;;;0.88;0.20;;;17.40;50.50;19.40;94530.00;;;;10353788;28;45210;-63
2022/05/27 01:32:10;;;;;;;0.13;0.13;;;17.40;50.50;19.40;94527.00;;;;10335396;28;45272;-63
2022/05/27 01:37:43;;;;;;;0.10;0.10;;;17.30;50.50;19.40;94525.00;;;;10353077;28;45426;-63
2022/05/27 01:43:14;;;;;;;0.10;0.10;;;17.30;50.50;19.40;94500.00;;;;10353733;28;45151;-63
2022/05/27 01:48:47;;;;;;;0.25;0.10;;;17.30;50.50;19.40;94509.00;;;;10353238;28;45687;-63
2022/05/27 01:54:16;;;;;;;0.10;0.10;;;17.30;50.50;19.40;94508.00;;;;10353386;28;45432;-63
2022/05/27 01:59:52;;;;;;;0.25;0.10;;;17.40;50.60;19.40;94518.00;;;;10352912;28;45122;-63
2022/05/27 02:05:20;;;;;;;0.55;0.20;;;17.30;50.50;19.40;94504.00;;;;10353183;28;45114;-63
2022/05/27 02:10:49;;;;;;;0.10;0.10;;;17.30;50.50;19.40;94523.00;;;;10352590;28;45323;-63
2022/05/27 02:16:16;;;;;;;0.30;0.10;;;17.30;50.50;19.40;94532.00;;;;10352613;28;45796;-63
2022/05/27 02:21:43;;;;;;;0.85;0.00;;;17.30;50.50;19.40;94513.00;;;;10352955;28;45148;-63
2022/05/27 02:27:07;;;;;;;0.10;0.10;;;17.30;50.50;19.40;94517.00;;;;10352050;28;45111;-63
2022/05/27 02:32:33;;;;;;;0.00;0.00;;;17.30;50.50;19.40;94497.00;;;;10359437;28;45291;-63
2022/05/27 02:38:00;;;;;;;0.30;0.10;;;17.30;50.50;19.40;94513.00;;;;10358644;28;45152;-63
2022/05/27 02:43:46;;;;;;;0.10;0.10;;;17.30;50.50;19.30;94513.00;;;;10359252;28;45791;-63
2022/05/27 02:49:16;;;;;;;0.30;0.10;;;17.30;50.50;19.40;94514.00;;;;10358732;28;45188;-63
2022/05/27 02:54:47;;;;;;;0.30;0.10;;;17.30;50.50;19.30;94519.00;;;;10359109;28;45885;-63
2022/05/27 03:00:12;;;;;;;0.00;0.00;;;17.20;50.50;19.30;94517.00;;;;10358003;28;45757;-63
2022/05/27 03:05:45;;;;;;;0.10;0.10;;;17.30;50.50;19.30;94519.00;;;;10358304;28;45769;-63
2022/05/27 03:11:14;;;;;;;0.10;0.10;;;17.20;50.50;19.30;94510.00;;;;10358162;28;45163;-63
2022/05/27 03:16:49;;;;;;;0.20;0.10;;;17.20;50.50;19.30;94498.00;;;;10357950;28;45151;-63
2022/05/27 03:22:19;;;;;;;0.20;0.20;;;17.20;50.50;19.30;94516.00;;;;10357910;28;45182;-63
2022/05/27 03:27:48;;;;;;;0.45;0.20;;;17.20;50.50;19.30;94507.00;;;;10357397;28;45236;-63
2022/05/27 03:33:19;;;;;;;0.22;0.10;;;17.20;50.50;19.30;94500.00;;;;10357587;28;45931;-63
2022/05/27 03:38:46;;;;;;;0.20;0.10;;;17.20;50.50;19.30;94507.00;;;;10356209;28;45106;-63
2022/05/27 03:44:08;;;;;;;0.10;0.10;;;17.20;50.50;19.30;94502.00;;;;10357585;28;45245;-63
2022/05/27 03:49:29;;;;;;;0.43;0.10;;;17.20;50.50;19.30;94514.00;;;;10356562;28;45207;-63
2022/05/27 03:54:50;;;;;;;0.10;0.10;;;17.20;50.50;19.30;94517.00;;;;10357013;28;45207;-63
2022/05/27 04:00:15;;;;;;;0.10;0.10;;;17.20;50.50;19.20;94513.00;;;;10356491;28;45175;-63
2022/05/27 04:05:36;;;;;;;0.10;0.10;;;17.20;50.50;19.20;94513.00;;;;10356396;28;45139;-63
2022/05/27 04:10:56;;;;;;;0.30;0.10;;;17.20;50.50;19.20;94510.00;;;;10356507;28;45217;-63
2022/05/27 04:16:18;;;;;;;0.40;0.10;;;17.20;50.50;19.20;94517.00;;;;10355981;28;45114;-63
2022/05/27 04:21:39;;;;;;;0.20;0.10;;;17.20;50.50;19.20;94517.00;;;;10356210;28;45243;-63
2022/05/27 04:27:06;;;;;;;0.10;0.10;;;17.20;50.50;19.20;94520.00;;;;10355565;28;45754;-63
2022/05/27 04:32:28;;;;;;;0.55;0.17;;;17.20;50.50;19.20;94520.00;;;;10355749;28;45135;-63
2022/05/27 04:37:49;;;;;;;0.22;0.20;;;17.20;50.50;19.20;94506.00;;;;10354666;28;45870;-63
2022/05/27 04:43:10;;;;;;;0.00;0.00;;;17.20;50.40;19.20;94502.00;;;;10355426;28;45182;-62
2022/05/27 04:48:32;;;;;;;0.20;0.10;;;17.20;50.40;19.20;94494.00;;;;10354794;28;45183;-63
2022/05/27 04:53:52;;;;;;;0.28;0.13;;;17.20;50.40;19.20;94504.00;;;;10354329;28;45202;-63
2022/05/27 04:59:13;;;;;;;0.20;0.10;;;17.20;50.40;19.20;94509.00;;;;10354514;28;45790;-63
2022/05/27 05:04:35;;;;;;;0.17;0.10;;;17.20;50.40;19.20;94489.00;;;;10354837;28;45251;-62
2022/05/27 05:09:55;;;;;;;0.28;0.10;;;17.20;50.40;19.20;94498.00;;;;10354253;28;45870;-63
2022/05/27 05:15:16;;;;;;;0.20;0.10;;;17.20;50.40;19.20;94517.00;;;;10354334;28;45196;-63
2022/05/27 05:20:39;;;;;;;0.20;0.13;;;17.20;50.40;19.20;94520.00;;;;10354204;28;45136;-63
2022/05/27 05:25:59;;;;;;;0.75;0.10;;;17.20;50.50;19.20;94515.00;;;;10354121;28;45321;-64
2022/05/27 05:31:20;;;;;;;0.20;0.17;;;17.20;50.40;19.30;94517.00;;;;10354120;28;45174;-63
2022/05/27 05:36:42;;;;;;;0.30;0.30;;;17.20;50.50;19.20;94515.00;;;;10352758;28;45200;-63
2022/05/27 05:42:05;;;;;;;1.55;0.30;;;17.20;50.70;19.20;94528.00;;;;10353875;28;45150;-64
2022/05/27 05:47:26;;;;;;;0.30;0.30;;;17.20;50.80;19.20;94526.00;;;;10353339;28;45131;-64
2022/05/27 05:52:48;;;;;;;0.60;0.35;;;17.20;50.90;19.20;94525.00;;;;10353615;28;45467;-64
2022/05/27 05:58:08;;;;;;;0.88;0.30;;;17.20;50.90;19.20;94539.00;;;;10353269;28;45207;-64
2022/05/27 06:03:29;;;;;;;0.65;0.40;;;17.20;51.10;19.20;94534.00;;;;10356411;28;45204;-63
2022/05/27 06:08:51;;;;;;;0.20;0.20;;;17.20;51.00;19.20;94531.00;;;;10359934;28;45791;-63
2022/05/27 06:14:12;;;;;;;0.63;0.30;;;17.20;51.00;19.20;94528.00;;;;10360385;28;45158;-64
2022/05/27 06:19:33;;;;;;;0.82;0.38;;;17.20;51.00;19.20;94518.00;;;;10358906;28;45730;-63
2022/05/27 06:24:54;;;;;;;0.50;0.40;;;17.20;51.10;19.20;94527.00;;;;10359901;28;45869;-64
2022/05/27 06:35:53;;;;;;;0.68;0.32;;;17.20;51.10;19.30;94527.00;;;;10358598;28;45773;-64
2022/05/27 06:41:16;;;;;;;0.15;0.15;;;17.20;51.10;19.30;94530.00;;;;10358822;28;45722;-63
2022/05/27 06:46:37;;;;;;;0.60;0.25;;;17.20;51.20;19.30;94518.00;;;;10358770;28;45264;-63
2022/05/27 06:51:58;;;;;;;0.30;0.30;;;17.20;51.20;19.30;94531.00;;;;10356194;28;45799;-63
2022/05/27 06:57:20;;;;;;;0.68;0.40;;;17.20;51.30;19.30;94532.00;;;;10357791;28;45123;-63
2022/05/27 07:02:40;;;;;;;0.40;0.30;;;17.20;51.30;19.30;94541.00;;;;10365461;28;44913;-64
2022/05/27 07:08:03;;;;;;;0.60;0.45;;;17.20;51.30;19.30;94523.00;;;;10357684;28;45294;-63
2022/05/27 07:13:25;;;;;;;0.90;0.40;;;17.20;51.00;19.40;94549.00;;;;10356967;28;45154;-63
2022/05/27 07:18:46;;;;;;;0.80;0.30;;;17.30;51.00;19.30;94544.00;;;;10416809;23;45783;-62
2022/05/27 07:24:09;;;;;;;0.98;0.40;;;17.30;51.30;19.30;94538.00;;;;10398845;28;45891;-61
2022/05/27 07:29:31;;;;;;;0.75;0.20;;;17.20;51.30;19.30;94547.00;;;;10357983;28;45232;-62
2022/05/27 07:34:51;;;;;;;1.08;0.40;;;17.20;51.30;19.30;94530.00;;;;10357291;28;45144;-62
2022/05/27 07:40:12;;;;;;;1.83;0.30;;;17.20;51.30;19.30;94533.00;;;;10356809;28;45193;-62
2022/05/27 07:45:37;;;;;;;2.15;0.43;;;17.20;51.30;19.40;94517.00;;;;10356971;28;45222;-69
2022/05/27 07:50:58;;;;;;;1.58;0.40;;;17.20;51.40;19.40;94516.00;;;;10357573;28;45197;-62
2022/05/27 07:56:18;;;;;;;3.10;0.43;;;17.30;51.60;19.40;94525.00;;;;10356829;28;45120;-63
2022/05/27 08:01:40;;;;;;;1.80;0.30;;;17.30;51.60;19.30;94536.00;;;;10345565;28;45846;-63
2022/05/27 08:07:01;;;;;;;0.57;0.40;;;17.30;51.70;19.30;94536.00;;;;10356218;28;45319;-63
2022/05/27 08:12:22;;;;;;;1.73;0.30;;;17.30;51.70;19.30;94515.00;;;;10356494;28;45758;-63
2022/05/27 08:17:44;;;;;;;1.02;0.30;;;17.20;51.70;19.30;94527.00;;;;10355615;28;45284;-62
2022/05/27 08:23:06;;;;;;;0.77;0.30;;;17.20;51.70;19.30;94531.00;;;;10356378;28;45214;-63
2022/05/27 08:28:27;;;;;;;0.57;0.35;;;17.20;51.70;19.30;94539.00;;;;10354470;28;45127;-63
2022/05/27 08:39:27;;;;;;;1.55;0.40;;;17.20;51.70;19.30;94525.00;;;;10355437;28;45237;-63
2022/05/27 08:44:55;;;;;;;0.70;0.30;;;17.20;51.70;19.30;94515.00;;;;10355671;28;45105;-63
2022/05/27 08:50:26;;;;;;;0.65;0.30;;;17.20;51.70;19.30;94511.00;;;;10354825;28;45901;-63
2022/05/27 09:01:35;;;;;;;0.90;0.30;;;17.20;51.60;19.30;94514.00;;;;10354653;28;45198;-64
2022/05/27 09:07:21;;;;;;;0.35;0.20;;;17.20;51.60;19.30;94509.00;;;;10354570;28;45135;-62
2022/05/27 09:12:49;;;;;;;0.88;0.40;;;17.20;51.80;19.30;94518.00;;;;10354790;28;45374;-63
2022/05/27 09:18:26;;;;;;;2.72;0.32;;;17.20;51.80;19.30;94516.00;;;;10353702;28;45131;-63
2022/05/27 09:24:11;;;;;;;1.23;0.38;;;17.20;51.70;19.30;94510.00;;;;10354037;28;45181;-63
2022/05/27 09:29:52;;;;;;;0.60;0.30;;;17.20;51.70;19.40;94510.00;;;;10352454;28;45294;-62
2022/05/27 09:35:20;;;;;;;0.88;0.38;;;17.20;51.80;19.40;94516.00;;;;10351675;28;45502;-61
2022/05/27 09:40:48;;;;;;;0.55;0.20;;;17.30;51.70;19.40;94515.00;;;;10359962;28;45115;-61
2022/05/27 09:46:13;;;;;;;1.52;0.40;;;17.30;52.10;19.40;94517.00;;;;10358936;28;45451;-61
2022/05/27 09:51:34;;;;;;;0.98;0.30;;;17.30;52.20;19.30;94511.00;;;;10360335;28;45901;-61
2022/05/27 09:57:03;;;;;;;2.08;0.35;;;17.30;52.10;19.30;94499.00;;;;10360320;28;45231;-61
2022/05/27 10:02:30;;;;;;;1.95;0.20;;;17.30;52.30;19.30;94502.00;;;;10321495;28;45904;-61
2022/05/27 10:07:54;;;;;;;0.60;0.30;;;17.30;52.10;19.30;94506.00;;;;10359686;28;45746;-61
2022/05/27 10:13:20;;;;;;;1.48;0.30;;;17.20;52.20;19.30;94510.00;;;;10359990;28;45213;-61
2022/05/27 10:18:44;;;;;;;3.67;0.50;;;17.20;52.40;19.30;94497.00;;;;10359050;28;45229;-61
2022/05/27 10:24:20;;;;;;;2.58;0.40;;;17.20;52.40;19.30;94496.00;;;;10338907;28;45699;-62
2022/05/27 10:29:57;;;;;;;1.67;0.40;;;17.20;52.40;19.30;94497.00;;;;10359610;28;45777;-62
2022/05/27 10:35:39;;;;;;;0.67;0.27;;;17.20;52.50;19.30;94497.00;;;;10359188;28;45186;-62
2022/05/27 10:41:06;;;;;;;1.45;0.55;;;17.20;52.60;19.30;94487.00;;;;10359327;28;45343;-61
2022/05/27 10:46:32;;;;;;;1.15;0.40;;;17.20;52.40;19.30;94471.00;;;;10358989;28;45145;-61
2022/05/27 10:52:08;;;;;;;1.40;0.30;;;17.20;52.50;19.30;94496.00;;;;10358243;28;45177;-62
2022/05/27 11:04:11;;;;;;;2.25;0.32;;;17.20;52.60;19.30;94459.00;;;;10344376;28;45249;-61
2022/05/27 11:09:48;;;;;;;1.63;0.40;;;17.20;52.70;19.30;94495.00;;;;10346023;28;45178;-62
2022/05/27 11:15:24;;;;;;;1.00;0.30;;;17.20;52.70;19.30;94489.00;;;;10357721;28;45920;-62
2022/05/27 11:21:27;;;;;;;0.40;0.30;;;17.20;52.70;19.30;94499.00;;;;10358147;28;45721;-61
2022/05/27 11:27:01;;;;;;;0.95;0.30;;;17.30;52.70;19.30;94483.00;;;;10352706;28;45311;-61
2022/05/27 11:32:42;;;;;;;0.77;0.20;;;17.30;52.80;19.40;94478.00;;;;10357860;28;45154;-62
2022/05/27 11:38:24;;;;;;;2.00;0.70;;;17.30;52.70;19.40;94464.00;;;;10357099;28;45395;-62
2022/05/27 11:43:53;;;;;;;2.42;0.40;;;17.30;52.80;19.30;94474.00;;;;10357471;28;45823;-62
2022/05/27 11:49:40;;;;;;;1.58;0.20;;;17.30;52.90;19.30;94472.00;;;;10356923;28;45802;-63
2022/05/27 11:55:27;;;;;;;0.40;0.20;;;17.30;52.90;19.30;94471.00;;;;10356470;28;45105;-62
2022/05/27 12:01:04;;;;;;;1.88;0.30;;;17.30;53.00;19.40;94460.00;;;;10356800;28;45189;-62
2022/05/27 12:06:33;;;;;;;1.75;0.40;;;17.30;52.70;19.40;94454.00;;;;10356193;28;45258;-62
2022/05/27 12:12:01;;;;;;;1.98;0.40;;;17.30;52.80;19.40;94449.00;;;;10355920;28;45234;-62
2022/05/27 12:17:29;;;;;;;3.60;0.40;;;17.30;52.90;19.40;94440.00;;;;10355117;28;45821;-62
2022/05/27 12:22:53;;;;;;;0.88;0.25;;;17.30;52.90;19.40;94436.00;;;;10355591;28;45191;-62
2022/05/27 12:28:18;;;;;;;1.02;0.47;;;17.30;53.00;19.40;94426.00;;;;10355019;28;45433;-62
2022/05/27 12:33:39;;;;;;;1.13;0.40;;;17.30;52.80;19.40;94416.00;;;;10355659;28;45196;-62
2022/05/27 12:39:00;;;;;;;2.13;0.70;;;17.40;52.90;19.40;94426.00;;;;10355303;28;45215;-62
2022/05/27 12:44:28;;;;;;;1.40;0.40;;;17.30;52.70;19.40;94434.00;;;;10355721;28;45127;-62
2022/05/27 12:49:59;;;;;;;2.88;0.50;;;17.40;53.00;19.50;94433.00;;;;10354895;28;45114;-62
2022/05/27 13:01:28;;;;;;;1.60;0.50;;;17.40;52.90;19.50;94412.00;;;;10355104;28;46026;-62
2022/05/27 13:07:06;;;;;;;1.40;0.43;;;17.40;52.80;19.50;94415.00;;;;10353884;28;45159;-61
2022/05/27 13:12:52;;;;;;;3.53;0.60;;;17.40;52.90;19.50;94411.00;;;;10352932;28;45845;-62
2022/05/27 13:18:27;;;;;;;3.10;0.60;;;17.40;52.90;19.50;94403.00;;;;10360342;22;45686;-62
2022/05/27 13:23:59;;;;;;;1.15;0.40;;;17.50;53.10;19.50;94376.00;;;;10349653;28;45355;-61
2022/05/27 13:29:31;;;;;;;1.75;0.65;;;17.50;53.10;19.50;94390.00;;;;10315494;28;45682;-61
2022/05/27 13:34:57;;;;;;;2.10;0.70;;;17.50;53.10;19.50;94397.00;;;;10313120;28;45758;-61
2022/05/27 13:40:27;;;;;;;2.72;0.82;;;17.50;53.20;19.60;94403.00;;;;10313324;28;45238;-61
2022/05/27 13:45:55;;;;;;;4.55;0.75;;;17.60;52.80;19.60;94380.00;;;;10312703;28;45214;-61
2022/05/27 13:51:21;;;;;;;4.03;0.70;;;17.60;53.20;19.60;94365.00;;;;10313050;28;45215;-61
2022/05/27 13:56:46;;;;;;;4.10;0.90;;;17.50;52.90;19.60;94381.00;;;;10312484;28;45127;-61
2022/05/27 14:02:16;;;;;;;2.72;0.90;;;17.60;52.90;19.60;94371.00;;;;10312794;28;45678;-62
2022/05/27 14:07:44;;;;;;;4.65;0.98;;;17.60;52.90;19.60;94380.00;;;;10312384;28;45177;-61
2022/05/27 14:13:21;;;;;;;2.90;0.73;;;17.60;52.90;19.70;94367.00;;;;10312511;28;45171;-62
2022/05/27 14:18:42;;;;;;;2.47;0.95;;;17.60;52.70;19.70;94365.00;;;;10311897;28;45264;-61
2022/05/27 14:24:17;;;;;;;2.78;0.98;;;17.60;52.80;19.70;94359.00;;;;10314125;28;45153;-61
2022/05/27 14:29:38;;;;;;;1.40;0.80;;;17.60;52.80;19.70;94353.00;;;;10318725;28;45818;-62
2022/05/27 14:34:59;;;;;;;2.03;0.80;;;17.60;52.80;19.70;94355.00;;;;10318408;28;45682;-61
2022/05/27 14:40:27;;;;;;;2.70;0.70;;;17.70;52.90;19.70;94357.00;;;;10318547;28;45802;-61
2022/05/27 14:45:54;;;;;;;2.67;0.80;;;17.70;52.90;19.70;94340.00;;;;10317270;28;45242;-62
2022/05/27 14:51:22;;;;;;;3.03;0.70;;;17.70;53.10;19.70;94342.00;;;;10318362;28;45116;-61
2022/05/27 14:56:43;;;;;;;3.88;0.90;;;17.70;53.20;19.70;94328.00;;;;10317692;28;45207;-61
2022/05/27 15:02:05;;;;;;;2.95;0.70;;;17.70;53.00;19.70;94328.00;;;;10317809;28;45198;-61
2022/05/27 15:07:35;;;;;;;3.95;0.88;;;17.70;53.20;19.80;94310.00;;;;10313432;28;45305;-61
2022/05/27 15:12:57;;;;;;;1.35;0.55;;;17.70;53.30;19.80;94321.00;;;;10315909;28;45773;-62
2022/05/27 15:18:23;;;;;;;1.65;0.60;;;17.80;53.00;19.80;94326.00;;;;10315674;28;45296;-62
2022/05/27 15:23:53;;;;;;;1.60;0.45;;;17.80;53.50;19.80;94318.00;;;;10316868;28;45217;-62
2022/05/27 15:35:02;;;;;;;1.73;0.80;;;17.80;53.60;19.80;94316.00;;;;10315078;28;45121;-62
2022/05/27 15:40:22;;;;;;;2.40;0.60;;;17.80;53.40;19.80;94314.00;;;;10313878;28;45838;-62
2022/05/27 15:45:45;;;;;;;3.22;0.63;;;17.80;53.10;19.80;94294.00;;;;10284374;28;55774;-62
2022/05/27 15:51:07;;;;;;;2.22;0.60;;;17.80;53.60;20.00;94283.00;;;;10310904;28;45329;-62
2022/05/27 15:56:28;;;;;;;1.58;0.43;;;17.90;52.80;19.90;94296.00;;;;10313853;28;45220;-62
2022/05/27 16:01:49;;;;;;;1.23;0.45;;;17.90;52.50;20.00;94295.00;;;;10315482;28;45205;-58
2022/05/27 16:07:10;;;;;;;1.38;0.50;;;17.90;52.40;20.00;94295.00;;;;10313477;28;45749;-59
2022/05/27 16:12:31;;;;;;;1.00;0.32;;;18.00;52.60;20.10;94290.00;;;;10256935;28;52251;-61
2022/05/27 16:17:54;;;;;;;1.55;0.43;;;18.00;53.00;20.00;94296.00;;;;10272830;28;45852;-61
2022/05/27 16:23:15;;;;;;;3.53;0.60;;;18.00;52.90;20.10;94284.00;;;;10251466;28;45311;-61
2022/05/27 16:28:37;;;;;;;1.17;0.50;;;18.00;52.90;20.10;94295.00;;;;10273074;28;45202;-60
2022/05/27 16:34:01;;;;;;;4.18;0.73;;;18.00;53.40;20.10;94298.00;;;;10269989;28;45275;-61
2022/05/27 16:39:22;;;;;;;2.97;0.50;;;18.00;52.90;20.10;94307.00;;;;10269413;28;45254;-60
2022/05/27 16:44:43;;;;;;;0.93;0.40;;;18.10;52.90;20.10;94299.00;;;;10271984;28;45126;-61
2022/05/27 16:50:07;;;;;;;1.30;0.50;;;18.00;52.90;20.10;94301.00;;;;10271529;28;45208;-61
2022/05/27 16:55:29;;;;;;;1.60;0.50;;;18.00;53.10;20.10;94312.00;;;;10272035;28;45271;-61
2022/05/27 17:00:50;;;;;;;2.83;0.60;;;18.00;53.10;20.00;94320.00;;;;10269249;28;45220;-61
2022/05/27 17:06:17;;;;;;;2.78;0.50;;;18.00;53.30;20.00;94307.00;;;;10267137;28;45168;-61
2022/05/27 17:11:38;;;;;;;;;;;17.90;53.40;20.00;94319.00;;;;10272961;28;45819;-60
2022/05/27 17:16:58;;;;;;;0.63;0.20;;;17.90;53.20;20.00;94304.00;;;;10270363;28;45298;-60
2022/05/27 17:22:20;;;;;;;4.35;0.50;;;17.90;53.10;20.00;94305.00;;;;10271938;28;45226;-61
2022/05/27 17:27:42;;;;;;;1.77;0.55;;;17.90;53.30;20.00;94321.00;;;;10271536;28;45794;-61
2022/05/27 17:33:02;;;;;;;1.55;0.60;;;17.90;53.30;20.00;94307.00;;;;10271895;28;45267;-61
2022/05/27 17:38:24;;;;;;;1.75;0.50;;;17.90;53.30;20.10;94306.00;;;;10270713;28;45789;-61
2022/05/27 17:43:44;;;;;;;2.63;0.50;;;17.90;53.30;20.10;94310.00;;;;10271558;28;45657;-61
2022/05/27 17:54:45;;;;;;;2.83;0.32;;;18.00;53.50;20.10;94314.00;;;;10271497;28;45760;-61
2022/05/27 18:00:08;;;;;;;2.03;0.45;;;18.00;53.50;20.10;94320.00;;;;10273994;28;45862;-61
2022/05/27 18:05:29;;;;;;;2.00;0.60;;;18.00;53.50;20.10;94328.00;;;;10276759;28;45221;-60
2022/05/27 18:10:50;;;;;;;4.13;0.50;;;18.00;53.50;20.10;94320.00;;;;10277366;28;45185;-61
2022/05/27 18:16:15;;;;;;;0.93;0.40;;;18.00;53.60;20.10;94331.00;;;;10275311;28;45836;-62
2022/05/27 18:21:36;;;;;;;1.77;0.30;;;18.00;53.70;20.00;94314.00;;;;10277980;28;45682;-62
2022/05/27 18:26:58;;;;;;;1.27;0.30;;;17.90;53.70;20.00;94327.00;;;;10276914;28;45249;-62
2022/05/27 18:32:19;;;;;;;1.73;0.40;;;17.90;53.60;19.90;94322.00;;;;10277231;28;45201;-61
2022/05/27 18:37:40;;;;;;;2.72;0.40;;;17.80;53.60;19.90;94339.00;;;;10276429;28;45171;-62
2022/05/27 18:43:02;;;;;;;1.25;0.40;;;17.80;53.60;19.90;94347.00;;;;10277020;28;45244;-61
2022/05/27 18:48:23;;;;;;;1.15;0.30;;;17.80;53.50;19.90;94334.00;;;;10276122;28;45248;-62
2022/05/27 18:53:44;;;;;;;1.48;0.40;;;17.80;53.30;19.90;94339.00;;;;10277084;28;45109;-61
2022/05/27 18:59:06;;;;;;;0.75;0.30;;;17.80;53.30;19.90;94348.00;;;;10275948;28;45254;-62
2022/05/27 19:04:29;;;;;;;1.08;0.50;;;17.80;53.40;19.90;94334.00;;;;10276751;28;45755;-62
2022/05/27 19:09:49;;;;;;;0.35;0.25;;;17.80;53.30;19.90;94355.00;;;;10274452;28;45149;-61
2022/05/27 19:15:14;;;;;;;0.60;0.40;;;17.70;53.20;19.80;94349.00;;;;10300669;23;45112;-63
2022/05/27 19:26:18;;;;;;;0.73;0.32;;;17.70;53.20;19.80;94357.00;;;;10225389;28;45762;-64
2022/05/27 19:31:40;;;;;;;1.25;0.68;;;17.70;53.10;19.80;94362.00;;;;10194949;28;45683;-63
2022/05/27 19:37:01;;;;;;;0.40;0.30;;;17.60;53.00;19.70;94365.00;;;;10194602;28;45759;-63
2022/05/27 19:42:22;;;;;;;0.30;0.15;;;17.60;53.00;19.70;94375.00;;;;10194946;28;45182;-64
2022/05/27 19:47:44;;;;;;;0.30;0.30;;;17.60;53.00;19.70;94376.00;;;;10194345;28;45128;-63
2022/05/27 19:53:04;;;;;;;1.13;0.30;;;17.60;53.00;19.70;94377.00;;;;10195027;28;45416;-64
2022/05/27 20:09:44;;;;;;;0.35;0.20;;;17.60;53.10;19.70;94381.00;;;;10193300;28;45176;-64
2022/05/27 20:15:08;;;;;;;0.40;0.30;;;17.60;53.00;19.70;94369.00;;;;10194191;28;45207;-63
2022/05/27 20:20:31;;;;;;;0.20;0.20;;;17.50;52.90;19.70;94393.00;;;;10191723;28;45235;-64
2022/05/27 20:25:52;;;;;;;1.17;0.20;;;17.50;53.00;19.70;94401.00;;;;10192904;28;45902;-63
2022/05/27 20:31:13;;;;;;;0.20;0.20;;;17.60;52.90;19.70;94402.00;;;;10193457;28;45213;-64
2022/05/27 20:42:17;;;;;;;1.23;0.30;;;17.60;52.90;19.60;94411.00;;;;10191564;28;45204;-63
2022/05/27 20:47:38;;;;;;;0.35;0.30;;;17.50;52.90;19.60;94400.00;;;;10187175;28;45271;-63
2022/05/27 20:53:00;;;;;;;1.25;0.30;;;17.50;52.90;19.60;94414.00;;;;10193045;28;45668;-63
2022/05/27 20:58:20;;;;;;;1.30;0.47;;;17.50;52.90;19.60;94394.00;;;;10192303;28;45879;-63
2022/05/27 21:03:41;;;;;;;1.27;0.20;;;17.50;52.90;19.60;94422.00;;;;10193175;28;45212;-62
2022/05/27 21:09:03;;;;;;;0.20;0.20;;;17.50;52.90;19.60;94405.00;;;;10192841;28;45207;-63
2022/05/27 21:14:27;;;;;;;0.20;0.10;;;17.50;52.90;19.60;94403.00;;;;10192741;28;45421;-63
2022/05/27 21:19:48;;;;;;;0.98;0.20;;;17.50;52.90;19.60;94413.00;;;;10191864;28;45333;-63
2022/05/27 21:25:10;;;;;;;0.10;0.10;;;17.40;52.80;19.50;94401.00;;;;10192476;28;45206;-63
2022/05/27 21:30:31;;;;;;;0.17;0.10;;;17.40;52.80;19.60;94404.00;;;;10192587;28;45671;-63
2022/05/27 21:35:52;;;;;;;0.15;0.10;;;17.40;52.80;19.50;94402.00;;;;10190986;28;45175;-62
2022/05/27 21:41:15;;;;;;;1.00;0.20;;;17.40;52.80;19.50;94407.00;;;;10192164;28;45691;-63
2022/05/27 21:46:36;;;;;;;0.85;0.13;;;17.40;52.90;19.50;94405.00;;;;10192346;28;45684;-63
2022/05/27 21:51:56;;;;;;;1.17;0.17;;;17.40;52.80;19.50;94406.00;;;;10192142;28;45248;-63
2022/05/27 21:57:18;;;;;;;0.75;0.20;;;17.40;52.70;19.50;94405.00;;;;10191326;28;45140;-63
2022/05/27 22:02:39;;;;;;;0.68;0.28;;;17.40;52.60;19.50;94403.00;;;;10191150;28;45671;-63
2022/05/27 22:07:59;;;;;;;0.60;0.20;;;17.40;52.70;19.50;94404.00;;;;10190855;28;45683;-63
2022/05/27 22:13:21;;;;;;;0.20;0.20;;;17.40;52.60;19.50;94404.00;;;;10191065;28;45224;-63
2022/05/27 22:18:42;;;;;;;0.20;0.10;;;17.40;52.60;19.50;94394.00;;;;10190179;28;45178;-63
2022/05/27 22:24:03;;;;;;;0.10;0.10;;;17.40;52.70;19.50;94400.00;;;;10191170;28;45221;-63
2022/05/27 22:29:25;;;;;;;0.30;0.17;;;17.30;52.60;19.50;94392.00;;;;10190349;28;45227;-63
2022/05/27 22:34:45;;;;;;;0.40;0.20;;;17.40;52.60;19.40;94383.00;;;;10190825;28;45226;-63
2022/05/27 22:40:08;;;;;;;0.30;0.20;;;17.30;52.60;19.40;94398.00;;;;10190346;28;45765;-62
2022/05/27 22:45:29;;;;;;;0.20;0.20;;;17.30;52.60;19.40;94382.00;;;;10191626;28;45269;-63
2022/05/27 22:50:53;;;;;;;0.20;0.20;;;17.30;52.60;19.40;94389.00;;;;10197204;28;45259;-63
2022/05/27 22:56:16;;;;;;;0.70;0.25;;;17.30;52.60;19.40;94372.00;;;;10196374;28;45299;-63
2022/05/27 23:01:37;;;;;;;0.10;0.10;;;17.30;52.60;19.40;94368.00;;;;10196623;28;45164;-63
2022/05/27 23:06:58;;;;;;;0.10;0.10;;;17.30;52.60;19.40;94356.00;;;;10196128;28;45251;-63
2022/05/27 23:23:31;;;;;;;0.40;0.20;;;17.30;52.50;19.40;94323.00;;;;10192553;28;45170;-62
2022/05/27 23:28:51;;;;;;;0.25;0.20;;;17.30;52.50;19.40;94331.00;;;;10195957;28;45668;-63
2022/05/27 23:34:14;;;;;;;0.10;0.10;;;17.30;52.50;19.40;94331.00;;;;10195584;28;45165;-63
2022/05/27 23:39:36;;;;;;;0.20;0.20;;;17.30;52.50;19.40;94327.00;;;;10195751;28;45161;-63
2022/05/27 23:44:57;;;;;;;0.70;0.22;;;17.30;52.50;19.40;94321.00;;;;10195619;28;45095;-63
2022/05/27 23:50:20;;;;;;;0.40;0.20;;;17.30;52.50;19.30;94318.00;;;;10194825;28;46350;-63
2022/05/27 23:55:42;;;;;;;0.20;0.20;;;17.20;52.50;19.30;94308.00;;;;10194005;28;45187;-63
